Dong-a Eos — DSQN5 — position and weather

sailwx.info

Track history (hours):
 
Tides and Currents Weather Stations Pressure Air Temp Water Temp Dewpoint Dewpoint Depression Visibility Wind Speed Wind Dir Waves Ship Positions

Dong-a Eos

Last reported at 2017-Dec-21 05:42 UTC. Time now 2018-Jul-20 14:28 UTC.
Position N 41°17' E 140°14'.
Warning: this ship's position is months out of date.

Length 292 m; draft 16.5 m.

Type: Cargo ship. MMSI: 441635000.

Date/timePositionNaut miles runAvg speedWind from/ knotsBaromVisibWave heightAir tempDewpointWater temp
2017-Dec-21 05:42N 41°17' E 140°14'3 8.7
2017-Dec-21 05:24N 41°18' E 140°16'3 8.0
2017-Dec-21 04:59N 41°20' E 140°20'5 8.2
2017-Dec-21 04:22N 41°23' E 140°25'3 7.9
2017-Dec-21 04:00N 41°25' E 140°29'4 8.2
2017-Dec-21 03:30N 41°27' E 140°33'5 8.9
2017-Dec-21 03:00N 41°30' E 140°38'5 9.9
2017-Dec-21 02:30N 41°33' E 140°43'5 9.8
2017-Dec-21 02:00N 41°35' E 140°48'4 8.9
2017-Dec-21 01:30N 41°38' E 140°54'4 8.4
2017-Dec-21 01:00N 41°38' E 140°59'4 8.9
2017-Dec-21 00:30N 41°39' E 141°05'610.6
2017-Dec-20 23:59N 41°39' E 141°12'510.0
2017-Dec-20 23:30N 41°40' E 141°19'5 9.4
2017-Dec-20 23:00N 41°40' E 141°25'5 9.0
2017-Dec-20 22:27N 41°40' E 141°32'  
Track history (hours):
 
Tides and Currents Weather Stations Pressure Air Temp Water Temp Dewpoint Dewpoint Depression Visibility Wind Speed Wind Dir Waves Ship Positions

Dong-a Eos

Last reported at 2017-Dec-21 05:42 UTC. Time now 2018-Jul-20 14:28 UTC.
Position N 41°17' E 140°14'.
Warning: this ship's position is months out of date.

Length 292 m; draft 16.5 m.

Type: Cargo ship. MMSI: 441635000.

Date/timePositionNaut miles runAvg speedWind from/ knotsBaromVisibWave heightAir tempDewpointWater temp
2017-Dec-21 05:42N 41°17' E 140°14'3 8.7
2017-Dec-21 05:24N 41°18' E 140°16'3 8.0
2017-Dec-21 04:59N 41°20' E 140°20'5 8.2
2017-Dec-21 04:22N 41°23' E 140°25'3 7.9
2017-Dec-21 04:00N 41°25' E 140°29'4 8.2
2017-Dec-21 03:30N 41°27' E 140°33'5 8.9
2017-Dec-21 03:00N 41°30' E 140°38'5 9.9
2017-Dec-21 02:30N 41°33' E 140°43'5 9.8
2017-Dec-21 02:00N 41°35' E 140°48'4 8.9
2017-Dec-21 01:30N 41°38' E 140°54'4 8.4
2017-Dec-21 01:00N 41°38' E 140°59'4 8.9
2017-Dec-21 00:30N 41°39' E 141°05'610.6
2017-Dec-20 23:59N 41°39' E 141°12'510.0
2017-Dec-20 23:30N 41°40' E 141°19'5 9.4
2017-Dec-20 23:00N 41°40' E 141°25'5 9.0
2017-Dec-20 22:27N 41°40' E 141°32'  

Dump ship's entire track history